This is the latest recevied weather packets stored in our database for station/object DL3NBY. If no packets are shown the sender has not sent any weather packets the latest 10 day(s).
| Time | Temp. | Humidity | Pressure | Rain* | Wind** | Luminosity | Snow |
|---|---|---|---|---|---|---|---|
| 1778131240 | 10° C | 99% | 1008.5 hPa | 1.52 mm | - | - | - |
| 1778129430 | 10° C | 99% | 1008.2 hPa | 1.27 mm | - | - | - |
| 1778120442 | 10.56° C | 99% | 1007 hPa | 1.52 mm | - | - | - |
| 1778115074 | 11.11° C | 98% | 1006.8 hPa | 0.51 mm | - | - | - |
| 1778113264 | 11.67° C | 98% | 1006.7 hPa | 0.25 mm | - | - | - |
| 1778110268 | 12.22° C | 97% | 1006.6 hPa | 0 mm | - | - | - |
| 1778109645 | 12.22° C | 97% | 1006.6 hPa | 0 mm | - | - | - |
| 1778105422 | 12.78° C | 95% | 1006.1 hPa | 0 mm | - | - | - |
| 1778098244 | 13.89° C | 89% | 1005.4 hPa | 0 mm | - | - | - |
| 1778084451 | 17.78° C | 75% | 1003.6 hPa | 0 mm | - | - | - |
| 1778083225 | 17.78° C | 76% | 1003.8 hPa | 0 mm | - | - | - |
| 1778072422 | 18.33° C | 72% | 1004.1 hPa | 0 mm | - | - | - |
| 1778067054 | 17.78° C | 74% | 1004.5 hPa | 0 mm | - | - | - |
| 1778053865 | 13.89° C | 96% | 1004.7 hPa | 0 mm | - | - | - |
| 1778052638 | 13.89° C | 96% | 1004.7 hPa | 0 mm | - | - | - |
| 1778051432 | 13.33° C | 99% | 1004.7 hPa | 0 mm | - | - | - |
| 1778048417 | 12.22° C | 99% | 1004.9 hPa | 0 mm | - | - | - |
| 1778041841 | 11.11° C | 99% | 1004.9 hPa | 0.25 mm | - | - | - |
| 1778038846 | 11.11° C | 99% | 1004.8 hPa | 0 mm | - | - | - |
| 1778037639 | 11.11° C | 99% | 1004.7 hPa | 0 mm | - | - | - |
| 1778031648 | 11.67° C | 99% | 1004.9 hPa | 0 mm | - | - | - |
| 1778030441 | 12.22° C | 99% | 1005.1 hPa | 0.51 mm | - | - | - |
| 1778028029 | 12.22° C | 99% | 1005.4 hPa | 0.51 mm | - | - | - |
| 1778026219 | 12.22° C | 99% | 1005.6 hPa | 0 mm | - | - | - |
| 1778025073 | 12.22° C | 99% | 1005.7 hPa | 0 mm | - | - | - |
* Rain latest hour (hover to see other rain measurements)
** Current wind speed in m/s (hover to see current wind gust speed)